Easy to use

vPilot, FSInn, and Squawkbox

VATSIM has 3 different client software available to choose by the user. The 3 different softwares are relatively easy to use and enjoyable to the user's experience. The software's operating manual is available to download in case user has not been able to fully operate the software to get a real working pilot experience.

Radar that functions similarly to real ATC's radar

EuroScope & VRC

VATSIM uses an advanced radar client simulating real ATC experience in the real world. Although it said to be advanced, both radar clients are very easy to use. Another interesting point is VATSIM has the technology to break the limit between simulation and real life experience.

With VATSIM, you can learn more about aviation.
You can also discuss with other aviation geek.

Unforgettable Experience

Current Activity

No controllers and pilot currently online!

*This information may not be up to date.

METAR

Airport Name - Location (ICAO) METAR
Sultan Hasanuddin - Makassar (WAAA)METAR WAAA 211400Z 12008KT 4000 RA FEW017CB BKN018 25/25 Q1010|NOSIG=
Ngurah Rai - Denpasar (WADD)METAR WADD 211400Z 30015KT 7000 -RA BKN008 26/24 Q1009|TEMPO TL1430 7000 -RA=
Ahmad Yani - Semarang (WAHS)SPECI WAHS 211401Z AUTO 25003KT 230V290 7000NDV -RA BKN140 25/24 Q1010=
Juanda - Surabaya (WARR)METAR WARR 211400Z 28010KT 6000 FEW020CB 27/24 Q1009|NOSIG=
Soekarno Hatta - Jakarta (WIII)METAR WIII 211400Z 26009KT 7000 SCT020 25/23 Q1011|NOSIG=
Halim Perdanakusuma - Jakarta (WIHH)METAR WIHH 211200Z 32004KT 4000 -RA FEW017CB SCT018 25/24 Q1010|RMK CB TO N=
Kualanamu International Airport - Deli Serdang (WIMM)METAR WIMM 211400Z 23008KT 7000 FEW017CB SCT018 26/22 Q1012|RMK CB TO SW AND W=

*METAR resource from BMKG. This information may not be up to date.

VATSIM Indonesia vACC VATSIM South East Asia VATSIM Asia